createdAt,value
2023-01-17T00:02:17.267Z,95081.66
2023-01-17T00:05:02.167Z,95085.94
2023-01-17T00:07:47.670Z,95074.63
2023-01-17T00:10:15.718Z,95087.66
2023-01-17T00:12:54.080Z,95090.25
2023-01-17T00:15:25.573Z,95091.16
2023-01-17T00:17:52.926Z,95091.16
2023-01-17T00:20:42.469Z,95098.84
2023-01-17T00:23:33.231Z,95093.50
2023-01-17T00:26:05.440Z,95081.31
2023-01-17T00:28:36.921Z,95089.22
2023-01-17T00:31:04.793Z,95100.34
2023-01-17T00:33:32.783Z,95099.38
2023-01-17T00:36:00.672Z,95103.69
2023-01-17T00:38:30.024Z,95110.63
2023-01-17T00:41:16.716Z,95108.91
2023-01-17T00:44:01.846Z,95093.16
2023-01-17T00:46:46.740Z,95104.38
2023-01-17T00:49:31.962Z,95113.13
2023-01-17T00:52:16.829Z,95115.00
2023-01-17T00:55:04.622Z,95104.59
2023-01-17T00:57:49.404Z,95109.84
2023-01-17T01:00:37.332Z,95119.50
2023-01-17T01:03:29.949Z,95116.13
2023-01-17T01:06:14.814Z,95122.31
2023-01-17T01:08:59.786Z,95120.72
2023-01-17T01:11:50.518Z,95117.38
2023-01-17T01:14:37.139Z,95119.22
2023-01-17T01:17:22.623Z,95120.06
2023-01-17T01:20:09.922Z,95127.84
2023-01-17T01:22:55.286Z,95133.09
2023-01-17T01:25:40.462Z,95139.16
2023-01-17T01:28:29.353Z,95134.81
2023-01-17T01:31:14.643Z,95140.06
2023-01-17T01:33:41.639Z,95149.75
2023-01-17T01:36:09.602Z,95155.81
2023-01-17T01:38:36.913Z,95166.22
2023-01-17T01:41:03.907Z,95164.47
2023-01-17T01:43:53.879Z,95174.91
2023-01-17T01:46:38.535Z,95183.66
2023-01-17T01:49:24.826Z,95180.19
2023-01-17T01:52:05.907Z,95185.31
2023-01-17T01:54:40.965Z,95188.91
2023-01-17T01:57:13.931Z,95200.31
2023-01-17T01:59:43.279Z,95197.75
2023-01-17T02:02:09.825Z,95210.91
2023-01-17T02:04:36.990Z,95211.00
2023-01-17T02:07:18.891Z,95203.28
2023-01-17T02:09:45.718Z,95200.63
2023-01-17T02:12:16.596Z,95212.84
2023-01-17T02:14:52.135Z,95215.50
2023-01-17T02:17:56.279Z,95218.97
2023-01-17T02:20:40.947Z,95201.41
2023-01-17T02:23:49.884Z,95217.16
2023-01-17T02:26:37.689Z,95211.97
2023-01-17T02:29:58.773Z,95233.13
2023-01-17T02:32:40.204Z,95233.97
2023-01-17T02:35:28.383Z,95244.53
2023-01-17T02:38:33.270Z,95242.66
2023-01-17T02:41:14.538Z,95254.06
2023-01-17T02:43:41.483Z,95253.22
2023-01-17T02:46:09.812Z,95269.78
2023-01-17T02:48:38.409Z,95273.47
2023-01-17T02:51:16.075Z,95275.16
2023-01-17T02:54:10.168Z,95275.16
2023-01-17T02:57:05.831Z,95273.50
2023-01-17T02:59:50.325Z,95288.47
2023-01-17T03:02:22.435Z,95284.19
2023-01-17T03:05:09.002Z,95291.06
2023-01-17T03:07:37.541Z,95290.31
2023-01-17T03:10:05.964Z,95300.72
2023-01-17T03:12:35.588Z,95294.47
2023-01-17T03:15:02.152Z,95287.53
2023-01-17T03:17:32.845Z,95306.63
2023-01-17T03:19:59.571Z,95297.03
2023-01-17T03:22:26.055Z,95304.75
2023-01-17T03:24:52.568Z,95304.81
2023-01-17T03:27:19.004Z,95299.63
2023-01-17T03:29:45.506Z,95298.00
2023-01-17T03:32:11.977Z,95303.16
2023-01-17T03:34:38.499Z,95310.22
2023-01-17T03:37:04.924Z,95310.31
2023-01-17T03:39:31.452Z,95312.97
2023-01-17T03:41:57.943Z,95311.38
2023-01-17T03:44:24.418Z,95313.19
2023-01-17T03:46:50.917Z,95313.19
2023-01-17T03:49:17.420Z,95310.59
2023-01-17T03:51:43.919Z,95320.22
2023-01-17T03:54:10.473Z,95321.94
2023-01-17T03:56:37.589Z,95315.81
2023-01-17T03:59:04.093Z,95320.88
2023-01-17T04:01:30.749Z,95329.50
2023-01-17T04:03:57.302Z,95335.50
2023-01-17T04:06:23.835Z,95345.94
2023-01-17T04:08:50.254Z,95341.56
2023-01-17T04:11:16.731Z,95354.75
2023-01-17T04:13:43.239Z,95343.63
2023-01-17T04:16:16.929Z,95346.19
2023-01-17T04:18:46.138Z,95354.19
2023-01-17T04:21:12.607Z,95342.81
2023-01-17T04:23:39.188Z,95339.25
2023-01-17T04:26:05.685Z,95357.63
2023-01-17T04:28:32.359Z,95353.28
2023-01-17T04:31:00.043Z,95359.53
2023-01-17T04:33:26.722Z,95357.81
2023-01-17T04:35:54.163Z,95364.84
2023-01-17T04:38:21.458Z,95376.97
2023-01-17T04:40:48.697Z,95362.13
2023-01-17T04:43:16.243Z,95368.25
2023-01-17T04:45:43.268Z,95375.28
2023-01-17T04:48:12.572Z,95372.69
2023-01-17T04:50:39.948Z,95385.56
2023-01-17T04:53:06.642Z,95396.94
2023-01-17T04:55:33.171Z,95392.69
2023-01-17T04:57:59.694Z,95408.25
2023-01-17T05:00:26.212Z,95393.44
2023-01-17T05:02:52.967Z,95410.06
2023-01-17T05:05:19.473Z,95415.34
2023-01-17T05:07:53.379Z,95425.03
2023-01-17T05:10:19.845Z,95430.34
2023-01-17T05:12:53.870Z,95422.72
2023-01-17T05:15:20.609Z,95422.72
2023-01-17T05:17:47.084Z,95425.50
2023-01-17T05:20:13.546Z,95426.47
2023-01-17T05:22:40.048Z,95427.28
2023-01-17T05:25:08.102Z,95435.88
2023-01-17T05:27:34.720Z,95442.81
2023-01-17T05:30:01.208Z,95438.56
2023-01-17T05:32:28.185Z,95437.81
2023-01-17T05:34:54.910Z,95444.75
2023-01-17T05:37:21.343Z,95440.25
2023-01-17T05:39:47.820Z,95460.28
2023-01-17T05:42:14.281Z,95472.59
2023-01-17T05:44:40.805Z,95476.13
2023-01-17T05:47:07.261Z,95477.69
2023-01-17T05:49:34.300Z,95475.91
2023-01-17T05:52:00.809Z,95482.97
2023-01-17T05:54:29.927Z,95495.31
2023-01-17T05:56:56.422Z,95497.06
2023-01-17T05:59:36.181Z,95500.53
2023-01-17T06:02:03.630Z,95503.19
2023-01-17T06:04:30.174Z,95505.16
2023-01-17T06:06:56.616Z,95510.53
2023-01-17T06:09:23.167Z,95514.06
2023-01-17T06:11:49.604Z,95529.81
2023-01-17T06:14:16.037Z,95535.94
2023-01-17T06:16:42.561Z,95533.28
2023-01-17T06:19:09.551Z,95525.50
2023-01-17T06:21:36.079Z,95555.13
2023-01-17T06:24:04.217Z,95550.69
2023-01-17T06:26:30.921Z,95560.28
2023-01-17T06:28:57.497Z,95568.97
2023-01-17T06:31:24.100Z,95584.47
2023-01-17T06:33:50.609Z,95590.63
2023-01-17T06:36:17.095Z,95595.94
2023-01-17T06:38:43.578Z,95595.09
2023-01-17T06:41:10.649Z,95605.53
2023-01-17T06:43:37.135Z,95614.31
2023-01-17T06:46:03.626Z,95619.72
2023-01-17T06:48:30.095Z,95628.59
2023-01-17T06:50:57.867Z,95638.38
2023-01-17T06:53:25.026Z,95649.84
2023-01-17T06:55:52.516Z,95656.78
2023-01-17T06:58:18.997Z,95676.94
2023-01-17T07:00:45.741Z,95679.63
2023-01-17T07:03:24.396Z,95685.94
2023-01-17T07:05:51.954Z,95687.81
2023-01-17T07:08:19.847Z,95687.06
2023-01-17T07:10:47.672Z,95688.09
2023-01-17T07:13:14.699Z,95691.44
2023-01-17T07:15:41.347Z,95690.72
2023-01-17T07:18:07.895Z,95695.91
2023-01-17T07:20:34.418Z,95695.06
2023-01-17T07:23:00.909Z,95703.69
2023-01-17T07:25:27.884Z,95705.38
2023-01-17T07:27:57.469Z,95709.69
2023-01-17T07:30:24.830Z,95711.34
2023-01-17T07:32:53.252Z,95712.22
2023-01-17T07:35:20.427Z,95709.59
2023-01-17T07:37:50.871Z,95724.28
2023-01-17T07:40:18.800Z,95725.28
2023-01-17T07:42:45.948Z,95726.88
2023-01-17T07:45:14.006Z,95732.94
2023-01-17T07:47:40.612Z,95733.75
2023-01-17T07:50:08.645Z,95733.59
2023-01-17T07:52:35.163Z,95738.75
2023-01-17T07:55:01.638Z,95742.28
2023-01-17T07:57:29.068Z,95736.09
2023-01-17T07:59:55.807Z,95751.66
2023-01-17T08:02:23.575Z,95751.56
2023-01-17T08:04:50.134Z,95757.63
2023-01-17T08:07:16.827Z,95768.09
2023-01-17T08:09:44.281Z,95769.06
2023-01-17T08:12:10.758Z,95775.97
2023-01-17T08:14:37.230Z,95774.22
2023-01-17T08:17:15.913Z,95782.06
2023-01-17T08:19:42.426Z,95775.03
2023-01-17T08:22:09.209Z,95784.53
2023-01-17T08:24:35.754Z,95774.16
2023-01-17T08:27:02.271Z,95785.44
2023-01-17T08:29:29.366Z,95792.38
2023-01-17T08:31:55.898Z,95790.59
2023-01-17T08:34:22.480Z,95794.84
2023-01-17T08:36:48.956Z,95792.91
2023-01-17T08:39:15.420Z,95796.16
2023-01-17T08:41:41.994Z,95798.69
2023-01-17T08:44:08.427Z,95801.13
2023-01-17T08:46:38.118Z,95807.13
2023-01-17T08:49:04.718Z,95806.34
2023-01-17T08:51:32.823Z,95815.00
2023-01-17T08:53:59.353Z,95815.25
2023-01-17T08:56:26.897Z,95822.16
2023-01-17T08:58:53.837Z,95824.81
2023-01-17T09:01:23.991Z,95824.81
2023-01-17T09:03:53.663Z,95836.13
2023-01-17T09:06:20.353Z,95840.47
2023-01-17T09:08:47.885Z,95843.16
2023-01-17T09:11:16.986Z,95842.13
2023-01-17T09:13:44.089Z,95837.66
2023-01-17T09:16:10.677Z,95848.91
2023-01-17T09:18:37.386Z,95853.41
2023-01-17T09:21:15.144Z,95857.09
2023-01-17T09:23:42.353Z,95865.97
2023-01-17T09:26:18.668Z,95866.03
2023-01-17T09:28:45.307Z,95877.41
2023-01-17T09:31:11.790Z,95885.19
2023-01-17T09:33:38.666Z,95889.50
2023-01-17T09:36:05.486Z,95887.78
2023-01-17T09:38:32.640Z,95906.06
2023-01-17T09:41:01.552Z,95901.78
2023-01-17T09:43:40.988Z,95905.31
2023-01-17T09:46:22.473Z,95909.63
2023-01-17T09:48:57.698Z,95901.88
2023-01-17T09:51:24.522Z,95899.28
2023-01-17T09:53:53.416Z,95900.28
2023-01-17T09:56:29.534Z,95889.03
2023-01-17T09:59:21.335Z,95887.97
2023-01-17T10:02:28.117Z,95881.38
2023-01-17T10:04:55.552Z,95884.50
2023-01-17T10:07:32.399Z,95879.19
2023-01-17T10:09:59.047Z,95877.69
2023-01-17T10:12:38.605Z,95876.66
2023-01-17T10:15:23.075Z,95881.56
2023-01-17T10:18:03.823Z,95877.13
2023-01-17T10:20:44.855Z,95882.19
2023-01-17T10:23:46.896Z,95890.72
2023-01-17T10:26:22.104Z,95891.53
2023-01-17T10:28:51.621Z,95895.75
2023-01-17T10:31:26.819Z,95904.56
2023-01-17T10:33:55.056Z,95902.72
2023-01-17T10:36:24.563Z,95903.72
2023-01-17T10:39:14.568Z,95912.22
2023-01-17T10:41:45.024Z,95916.38
2023-01-17T10:44:33.133Z,95905.03
2023-01-17T10:47:31.092Z,95906.81
2023-01-17T10:49:59.380Z,95909.50
2023-01-17T10:52:45.251Z,95913.03
2023-01-17T10:55:16.938Z,95907.06
2023-01-17T10:57:45.745Z,95901.88
2023-01-17T11:00:43.976Z,95913.09
2023-01-17T11:03:12.870Z,95908.69
2023-01-17T11:05:43.155Z,95907.19
2023-01-17T11:08:14.400Z,95903.59
2023-01-17T11:10:45.517Z,95913.94
2023-01-17T11:13:26.467Z,95908.91
2023-01-17T11:15:59.869Z,95911.56
2023-01-17T11:18:40.319Z,95914.13
2023-01-17T11:21:25.857Z,95914.88
2023-01-17T11:23:58.443Z,95907.00
2023-01-17T11:26:31.638Z,95918.28
2023-01-17T11:29:35.926Z,95908.88
2023-01-17T11:32:22.109Z,95911.56
2023-01-17T11:35:15.221Z,95912.38
2023-01-17T11:37:49.642Z,95908.91
2023-01-17T11:40:24.052Z,95908.94
2023-01-17T11:43:20.395Z,95903.19
2023-01-17T11:46:01.130Z,95900.63
2023-01-17T11:48:37.990Z,95896.25
2023-01-17T11:51:17.641Z,95901.50
2023-01-17T11:53:49.120Z,95903.22
2023-01-17T11:56:28.021Z,95898.59
2023-01-17T11:59:12.252Z,95900.94
2023-01-17T12:01:50.692Z,95908.00
2023-01-17T12:04:23.164Z,95906.22
2023-01-17T12:07:02.916Z,95904.50
2023-01-17T12:09:52.623Z,95900.19
2023-01-17T12:12:40.677Z,95901.88
2023-01-17T12:15:23.233Z,95899.16
2023-01-17T12:18:18.990Z,95913.03
2023-01-17T12:21:10.643Z,95909.47
2023-01-17T12:24:05.068Z,95920.66
2023-01-17T12:26:50.137Z,95922.69
2023-01-17T12:29:58.853Z,95931.34
2023-01-17T12:32:39.051Z,95936.69
2023-01-17T12:35:20.956Z,95935.88
2023-01-17T12:38:04.248Z,95931.16
2023-01-17T12:40:39.852Z,95940.56
2023-01-17T12:43:18.688Z,95945.84
2023-01-17T12:45:49.821Z,95949.16
2023-01-17T12:48:21.355Z,95947.41
2023-01-17T12:51:11.411Z,95949.09
2023-01-17T12:53:45.275Z,95951.59
2023-01-17T12:56:24.855Z,95953.31
2023-01-17T12:59:00.984Z,95966.56
2023-01-17T13:01:39.652Z,95965.78
2023-01-17T13:04:11.901Z,95966.78
2023-01-17T13:06:58.566Z,95966.81
2023-01-17T13:09:25.883Z,95972.72
2023-01-17T13:12:02.289Z,95984.00
2023-01-17T13:14:29.051Z,95986.78
2023-01-17T13:17:03.339Z,95988.53
2023-01-17T13:19:51.883Z,95981.53
2023-01-17T13:22:21.815Z,95987.53
2023-01-17T13:25:12.312Z,95985.66
2023-01-17T13:28:05.141Z,95987.50
2023-01-17T13:30:43.386Z,95987.56
2023-01-17T13:33:23.136Z,95985.84
2023-01-17T13:36:18.879Z,95985.63
2023-01-17T13:38:58.129Z,95997.78
2023-01-17T13:41:33.471Z,95999.59
2023-01-17T13:44:19.973Z,95995.44
2023-01-17T13:47:12.445Z,95996.38
2023-01-17T13:49:38.871Z,95995.63
2023-01-17T13:52:05.440Z,95994.94
2023-01-17T13:54:32.822Z,95991.50
2023-01-17T13:57:40.664Z,95995.00
2023-01-17T14:00:21.644Z,95999.47
2023-01-17T14:02:53.303Z,96000.38
2023-01-17T14:05:30.828Z,96004.84
2023-01-17T14:08:03.910Z,96001.38
2023-01-17T14:10:51.974Z,96011.09
2023-01-17T14:13:35.626Z,96002.41
2023-01-17T14:16:22.805Z,96006.81
2023-01-17T14:18:49.933Z,96006.91
2023-01-17T14:21:25.059Z,95999.09
2023-01-17T14:23:59.800Z,96007.88
2023-01-17T14:26:41.590Z,96012.19
2023-01-17T14:29:42.519Z,96013.16
2023-01-17T14:32:22.091Z,96022.81
2023-01-17T14:34:51.411Z,96019.25
2023-01-17T14:37:24.580Z,96029.78
2023-01-17T14:39:51.453Z,96022.72
2023-01-17T14:42:21.795Z,96030.75
2023-01-17T14:44:53.192Z,96031.00
2023-01-17T14:47:19.997Z,96033.66
2023-01-17T14:49:46.475Z,96034.59
2023-01-17T14:52:18.050Z,96037.31
2023-01-17T14:54:51.642Z,96045.19
2023-01-17T14:57:29.502Z,96040.00
2023-01-17T15:00:19.830Z,96047.00
2023-01-17T15:02:52.180Z,96040.84
2023-01-17T15:05:24.559Z,96043.47
2023-01-17T15:07:54.317Z,96034.78
2023-01-17T15:10:45.664Z,96038.31
2023-01-17T15:13:19.948Z,96042.75
2023-01-17T15:15:49.471Z,96041.00
2023-01-17T15:18:22.191Z,96045.47
2023-01-17T15:21:04.534Z,96058.53
2023-01-17T15:23:39.572Z,96055.09
2023-01-17T15:26:11.370Z,96053.50
2023-01-17T15:28:38.059Z,96059.63
2023-01-17T15:31:17.236Z,96060.66
2023-01-17T15:33:47.040Z,96059.78
2023-01-17T15:36:33.058Z,96059.13
2023-01-17T15:39:17.331Z,96058.34
2023-01-17T15:41:44.219Z,96060.13
2023-01-17T15:44:36.128Z,96057.59
2023-01-17T15:47:33.305Z,96060.28
2023-01-17T15:50:01.755Z,96061.97
2023-01-17T15:52:29.393Z,96061.00
2023-01-17T15:55:13.616Z,96063.59
2023-01-17T15:57:40.267Z,96055.84
2023-01-17T16:00:18.825Z,96048.88
2023-01-17T16:02:55.303Z,96055.84
2023-01-17T16:05:22.428Z,96055.88
2023-01-17T16:08:09.475Z,96066.34
2023-01-17T16:10:37.796Z,96070.75
2023-01-17T16:13:06.086Z,96068.19
2023-01-17T16:15:35.216Z,96070.84
2023-01-17T16:18:13.937Z,96072.66
2023-01-17T16:20:43.579Z,96076.16
2023-01-17T16:23:10.706Z,96072.72
2023-01-17T16:25:37.972Z,96073.59
2023-01-17T16:28:05.509Z,96083.28
2023-01-17T16:30:32.818Z,96078.03
2023-01-17T16:32:59.732Z,96077.19
2023-01-17T16:35:32.344Z,96073.72
2023-01-17T16:38:05.898Z,96073.72
2023-01-17T16:40:38.275Z,96072.81
2023-01-17T16:43:04.979Z,96075.47
2023-01-17T16:45:31.591Z,96071.94
2023-01-17T16:47:58.135Z,96073.72
2023-01-17T16:50:25.157Z,96065.03
2023-01-17T16:52:52.496Z,96076.34
2023-01-17T16:55:22.036Z,96077.19
2023-01-17T16:57:56.053Z,96075.66
2023-01-17T17:00:22.969Z,96080.19
2023-01-17T17:02:51.406Z,96084.53
2023-01-17T17:05:18.220Z,96084.50
2023-01-17T17:07:46.287Z,96086.19
2023-01-17T17:10:15.268Z,96087.06
2023-01-17T17:12:42.549Z,96077.56
2023-01-17T17:15:10.364Z,96080.19
2023-01-17T17:17:38.228Z,96073.25
2023-01-17T17:20:06.297Z,96071.47
2023-01-17T17:22:33.013Z,96071.53
2023-01-17T17:24:59.457Z,96084.50
2023-01-17T17:27:28.680Z,96071.53
2023-01-17T17:29:55.405Z,96081.03
2023-01-17T17:32:21.902Z,96080.22
2023-01-17T17:34:50.720Z,96077.53
2023-01-17T17:37:17.775Z,96081.84
2023-01-17T17:39:45.280Z,96081.88
2023-01-17T17:42:12.566Z,96085.41
2023-01-17T17:44:39.055Z,96083.66
2023-01-17T17:47:05.583Z,96091.63
2023-01-17T17:49:32.103Z,96091.75
2023-01-17T17:52:06.711Z,96096.19
2023-01-17T17:54:33.558Z,96110.91
2023-01-17T17:57:00.159Z,96113.44
2023-01-17T17:59:26.987Z,96114.22
2023-01-17T18:01:53.606Z,96117.72
2023-01-17T18:04:21.542Z,96119.41
2023-01-17T18:06:48.346Z,96115.88
2023-01-17T18:09:14.959Z,96125.41
2023-01-17T18:11:43.208Z,96128.88
2023-01-17T18:14:13.268Z,96121.09
2023-01-17T18:16:42.080Z,96122.06
2023-01-17T18:19:13.528Z,96116.94
2023-01-17T18:21:43.545Z,96118.66
2023-01-17T18:24:12.445Z,96124.66
2023-01-17T18:26:51.061Z,96110.78
2023-01-17T18:29:19.592Z,96115.09
2023-01-17T18:31:47.081Z,96116.97
2023-01-17T18:34:21.096Z,96108.41
2023-01-17T18:36:47.573Z,96116.28
2023-01-17T18:39:19.417Z,96122.25
2023-01-17T18:41:46.189Z,96119.56
2023-01-17T18:44:12.835Z,96105.69
2023-01-17T18:46:40.310Z,96098.75
2023-01-17T18:49:06.920Z,96107.44
2023-01-17T18:51:34.541Z,96107.44
2023-01-17T18:54:04.910Z,96118.75
2023-01-17T18:56:36.523Z,96130.94
2023-01-17T18:59:05.674Z,96125.72
2023-01-17T19:01:35.663Z,96135.28
2023-01-17T19:04:04.415Z,96136.19
2023-01-17T19:06:36.963Z,96141.38
2023-01-17T19:09:04.943Z,96143.09
2023-01-17T19:11:31.546Z,96144.81
2023-01-17T19:13:58.048Z,96149.13
2023-01-17T19:16:32.807Z,96154.34
2023-01-17T19:19:03.373Z,96160.47
2023-01-17T19:21:31.617Z,96164.81
2023-01-17T19:23:58.538Z,96173.50
2023-01-17T19:26:27.374Z,96174.41
2023-01-17T19:29:06.631Z,96178.72
2023-01-17T19:31:39.049Z,96176.16
2023-01-17T19:34:05.598Z,96180.50
2023-01-17T19:36:34.419Z,96186.50
2023-01-17T19:39:06.403Z,96184.75
2023-01-17T19:41:35.326Z,96186.44
2023-01-17T19:44:07.175Z,96184.72
2023-01-17T19:46:34.560Z,96190.81
2023-01-17T19:49:01.461Z,96187.31
2023-01-17T19:51:28.535Z,96200.34
2023-01-17T19:53:55.494Z,96200.34
2023-01-17T19:56:25.977Z,96208.19
2023-01-17T19:58:53.393Z,96205.56
2023-01-17T20:01:23.995Z,96213.31
2023-01-17T20:03:52.514Z,96211.59
2023-01-17T20:06:24.722Z,96208.97
2023-01-17T20:08:51.292Z,96208.13
2023-01-17T20:11:23.828Z,96212.47
2023-01-17T20:13:55.967Z,96201.22
2023-01-17T20:16:26.824Z,96199.50
2023-01-17T20:18:53.636Z,96197.78
2023-01-17T20:21:32.286Z,96191.69
2023-01-17T20:24:00.597Z,96193.44
2023-01-17T20:26:34.587Z,96202.97
2023-01-17T20:29:04.644Z,96200.38
2023-01-17T20:31:32.190Z,96196.94
2023-01-17T20:33:58.825Z,96192.56
2023-01-17T20:36:28.888Z,96192.56
2023-01-17T20:38:57.034Z,96205.59
2023-01-17T20:41:34.384Z,96203.03
2023-01-17T20:44:03.249Z,96209.16
2023-01-17T20:46:35.731Z,96223.91
2023-01-17T20:49:07.626Z,96212.63
2023-01-17T20:51:40.093Z,96210.88
2023-01-17T20:54:09.978Z,96220.41
2023-01-17T20:56:37.799Z,96224.72
2023-01-17T20:59:10.936Z,96216.91
2023-01-17T21:01:38.220Z,96222.13
2023-01-17T21:04:05.581Z,96231.66
2023-01-17T21:06:32.194Z,96230.78
2023-01-17T21:08:59.774Z,96233.38
2023-01-17T21:11:30.704Z,96240.31
2023-01-17T21:13:57.510Z,96239.44
2023-01-17T21:16:25.244Z,96236.88
2023-01-17T21:18:52.564Z,96247.22
2023-01-17T21:21:25.093Z,96252.44
2023-01-17T21:23:55.870Z,96252.44
2023-01-17T21:26:25.865Z,96261.09
2023-01-17T21:28:55.403Z,96269.75
2023-01-17T21:31:28.742Z,96261.97
2023-01-17T21:34:00.605Z,96260.25
2023-01-17T21:36:28.877Z,96272.34
2023-01-17T21:38:57.383Z,96278.41
2023-01-17T21:41:29.262Z,96274.09
2023-01-17T21:43:59.521Z,96287.09
2023-01-17T21:46:27.493Z,96285.38
2023-01-17T21:48:54.221Z,96280.16
2023-01-17T21:51:21.780Z,96283.63
2023-01-17T21:53:48.437Z,96289.69
2023-01-17T21:56:33.531Z,96295.75
2023-01-17T21:59:03.717Z,96299.22
2023-01-17T22:01:39.675Z,96297.47
2023-01-17T22:04:06.361Z,96306.13
2023-01-17T22:06:39.300Z,96307.00
2023-01-17T22:09:06.164Z,96304.41
2023-01-17T22:11:38.713Z,96312.19
2023-01-17T22:14:11.059Z,96319.13
2023-01-17T22:16:37.555Z,96322.63
2023-01-17T22:19:09.063Z,96333.00
2023-01-17T22:21:38.608Z,96319.16
2023-01-17T22:24:06.550Z,96331.25
2023-01-17T22:26:33.210Z,96328.66
2023-01-17T22:29:00.817Z,96334.75
2023-01-17T22:31:28.393Z,96333.84
2023-01-17T22:34:03.851Z,96326.06
2023-01-17T22:36:34.031Z,96327.81
2023-01-17T22:39:00.980Z,96328.69
2023-01-17T22:41:29.895Z,96328.69
2023-01-17T22:43:58.741Z,96333.00
2023-01-17T22:46:31.057Z,96331.28
2023-01-17T22:49:02.851Z,96324.31
2023-01-17T22:51:29.726Z,96316.56
2023-01-17T22:53:58.846Z,96315.66
2023-01-17T22:56:31.916Z,96320.88
2023-01-17T22:59:01.060Z,96311.34
2023-01-17T23:01:34.718Z,96314.81
2023-01-17T23:04:07.055Z,96315.66
2023-01-17T23:06:36.997Z,96313.94
2023-01-17T23:09:15.309Z,96308.75
2023-01-17T23:11:49.691Z,96307.00
2023-01-17T23:14:21.833Z,96306.16
2023-01-17T23:17:22.095Z,96306.16
2023-01-17T23:19:51.335Z,96304.41
2023-01-17T23:22:30.606Z,96304.41
2023-01-17T23:24:58.431Z,96299.22
2023-01-17T23:27:55.147Z,96308.75
2023-01-17T23:30:26.300Z,96294.91
2023-01-17T23:32:55.278Z,96301.81
2023-01-17T23:35:33.817Z,96300.09
2023-01-17T23:38:31.697Z,96293.16
2023-01-17T23:41:25.115Z,96294.91
2023-01-17T23:43:56.859Z,96287.09
2023-01-17T23:46:25.317Z,96287.09
2023-01-17T23:48:51.992Z,96281.03
2023-01-17T23:51:18.644Z,96276.69
2023-01-17T23:53:48.850Z,96278.44
2023-01-17T23:56:19.892Z,96271.53
2023-01-17T23:58:48.314Z,96270.66
